createdAt,value
2019-01-24T00:01:17.395Z,118.87
2019-01-24T00:03:46.483Z,118.47
2019-01-24T00:06:15.575Z,111.80
2019-01-24T00:08:44.673Z,116.43
2019-01-24T00:11:13.761Z,114.60
2019-01-24T00:13:42.842Z,103.47
2019-01-24T00:16:11.960Z,110.10
2019-01-24T00:18:41.035Z,105.40
2019-01-24T00:21:10.135Z,105.80
2019-01-24T00:23:39.242Z,105.87
2019-01-24T00:26:08.318Z,109.03
2019-01-24T00:28:37.402Z,102.83
2019-01-24T00:31:06.520Z,102.70
2019-01-24T00:33:35.836Z,96.97
2019-01-24T00:36:04.850Z,94.57
2019-01-24T00:38:34.123Z,90.43
2019-01-24T00:41:03.185Z,89.23
2019-01-24T00:43:32.253Z,92.13
2019-01-24T00:46:15.373Z,87.77
2019-01-24T00:48:44.468Z,86.23
2019-01-24T00:51:13.531Z,83.70
2019-01-24T00:53:42.748Z,82.23
2019-01-24T00:56:11.843Z,85.03
2019-01-24T00:58:40.882Z,82.33
2019-01-24T01:01:10.050Z,82.00
2019-01-24T01:03:39.152Z,79.07
2019-01-24T01:06:08.204Z,80.70
2019-01-24T01:08:37.302Z,72.77
2019-01-24T01:11:06.380Z,68.70
2019-01-24T01:13:35.456Z,71.17
2019-01-24T01:16:04.915Z,80.67
2019-01-24T01:18:33.919Z,81.30
2019-01-24T01:21:02.978Z,78.47
2019-01-24T01:23:32.075Z,75.37
2019-01-24T01:26:17.499Z,75.17
2019-01-24T01:28:47.569Z,72.73
2019-01-24T01:31:16.638Z,80.77
2019-01-24T01:33:45.721Z,80.30
2019-01-24T01:36:14.850Z,77.07
2019-01-24T01:38:43.922Z,65.93
2019-01-24T01:41:13.000Z,78.80
2019-01-24T01:43:42.100Z,79.13
2019-01-24T01:46:11.170Z,78.67
2019-01-24T01:48:40.269Z,78.00
2019-01-24T01:51:09.371Z,72.43
2019-01-24T01:53:38.451Z,64.10
2019-01-24T01:56:07.537Z,63.07
2019-01-24T01:58:36.641Z,63.97
2019-01-24T02:01:05.719Z,67.90
2019-01-24T02:03:34.809Z,62.10
2019-01-24T02:06:03.908Z,62.03
2019-01-24T02:08:32.978Z,60.10
2019-01-24T02:11:02.054Z,56.97
2019-01-24T02:13:31.157Z,54.47
2019-01-24T02:16:00.232Z,51.53
2019-01-24T02:18:29.297Z,51.93
2019-01-24T02:20:58.417Z,51.03
2019-01-24T02:23:27.487Z,50.47
2019-01-24T02:26:15.600Z,49.60
2019-01-24T02:28:44.653Z,49.83
2019-01-24T02:31:13.743Z,51.47
2019-01-24T02:33:42.839Z,47.73
2019-01-24T02:36:11.916Z,49.17
2019-01-24T02:38:40.973Z,46.20
2019-01-24T02:41:10.221Z,46.63
2019-01-24T02:43:39.300Z,46.80
2019-01-24T02:46:08.349Z,45.60
2019-01-24T02:48:37.475Z,44.87
2019-01-24T02:51:06.542Z,42.73
2019-01-24T02:53:35.616Z,44.40
2019-01-24T02:56:04.960Z,39.37
2019-01-24T02:58:34.000Z,42.27
2019-01-24T03:01:03.103Z,41.10
2019-01-24T03:03:32.264Z,39.20
2019-01-24T03:06:01.357Z,40.47
2019-01-24T03:08:30.426Z,40.40
2019-01-24T03:10:59.525Z,38.53
2019-01-24T03:13:28.594Z,42.57
2019-01-24T03:15:57.674Z,41.77
2019-01-24T03:18:26.774Z,45.57
2019-01-24T03:20:55.851Z,42.80
2019-01-24T03:23:24.926Z,46.67
2019-01-24T03:25:54.038Z,46.23
2019-01-24T03:28:23.116Z,45.13
2019-01-24T03:30:52.193Z,44.23
2019-01-24T03:33:22.236Z,41.80
2019-01-24T03:35:51.346Z,44.13
2019-01-24T03:38:20.380Z,40.43
2019-01-24T03:40:49.476Z,43.33
2019-01-24T03:43:18.551Z,40.97
2019-01-24T03:45:47.632Z,41.20
2019-01-24T03:48:16.748Z,42.23
2019-01-24T03:50:45.817Z,41.87
2019-01-24T03:53:14.895Z,49.83
2019-01-24T03:55:43.998Z,51.83
2019-01-24T03:58:13.062Z,54.37
2019-01-24T04:00:42.144Z,54.23
2019-01-24T04:03:11.256Z,55.23
2019-01-24T04:05:40.327Z,55.43
2019-01-24T04:08:09.397Z,52.80
2019-01-24T04:10:38.515Z,53.40
2019-01-24T04:13:07.585Z,54.37
2019-01-24T04:15:36.669Z,56.03
2019-01-24T04:18:06.137Z,53.27
2019-01-24T04:20:35.126Z,53.63
2019-01-24T04:23:04.187Z,56.93
2019-01-24T04:25:33.291Z,60.50
2019-01-24T04:28:02.350Z,60.60
2019-01-24T04:30:31.788Z,56.03
2019-01-24T04:33:01.233Z,55.30
2019-01-24T04:35:30.897Z,54.53
2019-01-24T04:37:59.884Z,56.60
2019-01-24T04:40:28.988Z,53.47
2019-01-24T04:42:58.069Z,53.57
2019-01-24T04:45:38.658Z,55.90
2019-01-24T04:48:07.721Z,52.20
2019-01-24T04:50:36.794Z,52.93
2019-01-24T04:53:05.902Z,51.17
2019-01-24T04:55:34.990Z,55.67
2019-01-24T04:58:04.070Z,59.97
2019-01-24T05:00:33.176Z,60.17
2019-01-24T05:03:02.275Z,64.20
2019-01-24T05:05:36.498Z,64.80
2019-01-24T05:08:05.579Z,59.13
2019-01-24T05:10:34.669Z,58.83
2019-01-24T05:13:03.833Z,64.20
2019-01-24T05:15:32.919Z,61.73
2019-01-24T05:18:02.003Z,70.77
2019-01-24T05:20:31.121Z,87.87
2019-01-24T05:23:00.201Z,100.80
2019-01-24T05:25:29.290Z,85.73
2019-01-24T05:27:58.388Z,77.07
2019-01-24T05:30:27.468Z,70.60
2019-01-24T05:32:56.548Z,71.73
2019-01-24T05:35:25.673Z,74.20
2019-01-24T05:37:54.755Z,73.13
2019-01-24T05:40:23.841Z,77.63
2019-01-24T05:42:52.958Z,81.47
2019-01-24T05:45:22.050Z,84.37
2019-01-24T05:47:51.341Z,102.27
2019-01-24T05:50:20.383Z,112.60
2019-01-24T05:52:49.461Z,106.17
2019-01-24T05:55:18.868Z,100.77
2019-01-24T05:57:47.962Z,110.17
2019-01-24T06:00:17.046Z,111.97
2019-01-24T06:02:46.117Z,108.90
2019-01-24T06:08:09.598Z,106.83
2019-01-24T06:10:38.704Z,105.10
2019-01-24T06:13:07.798Z,102.57
2019-01-24T06:15:36.876Z,106.00
2019-01-24T06:18:05.995Z,107.60
2019-01-24T06:20:35.076Z,98.70
2019-01-24T06:23:04.177Z,97.73
2019-01-24T06:25:33.299Z,101.07
2019-01-24T06:28:02.379Z,98.70
2019-01-24T06:30:31.475Z,105.60
2019-01-24T06:33:00.600Z,107.83
2019-01-24T06:35:36.754Z,104.37
2019-01-24T06:38:06.770Z,106.30
2019-01-24T06:40:35.823Z,108.87
2019-01-24T06:43:04.900Z,102.73
2019-01-24T06:45:34.019Z,106.33
2019-01-24T06:48:03.108Z,116.67
2019-01-24T06:50:32.194Z,141.97
2019-01-24T06:53:01.305Z,171.40
2019-01-24T06:55:30.374Z,165.37
2019-01-24T06:57:59.458Z,163.53
2019-01-24T07:00:28.586Z,158.77
2019-01-24T07:02:57.686Z,149.43
2019-01-24T07:05:26.789Z,134.90
2019-01-24T07:07:55.910Z,124.67
2019-01-24T07:10:25.019Z,117.90
2019-01-24T07:12:54.102Z,118.20
2019-01-24T07:15:23.315Z,124.00
2019-01-24T07:17:52.412Z,140.77
2019-01-24T07:20:21.538Z,155.40
2019-01-24T07:22:50.614Z,159.43
2019-01-24T07:28:20.945Z,163.40
2019-01-24T07:30:50.031Z,145.20
2019-01-24T07:33:19.100Z,169.23
2019-01-24T07:35:48.193Z,254.30
2019-01-24T07:38:17.281Z,225.47
2019-01-24T07:40:46.354Z,205.53
2019-01-24T07:43:15.731Z,234.20
2019-01-24T07:45:44.581Z,194.23
2019-01-24T07:48:13.669Z,174.57
2019-01-24T07:50:42.799Z,187.23
2019-01-24T07:53:11.875Z,213.17
2019-01-24T07:55:40.959Z,236.00
2019-01-24T07:58:10.106Z,232.80
2019-01-24T08:00:39.136Z,232.90
2019-01-24T08:03:08.239Z,217.23
2019-01-24T08:05:37.906Z,209.77
2019-01-24T08:08:06.443Z,193.67
2019-01-24T08:10:35.542Z,202.10
2019-01-24T08:13:04.654Z,225.03
2019-01-24T08:15:35.753Z,213.60
2019-01-24T08:18:04.876Z,208.23
2019-01-24T08:20:34.000Z,199.80
2019-01-24T08:23:03.046Z,196.73
2019-01-24T08:25:32.174Z,218.90
2019-01-24T08:28:01.260Z,241.07
2019-01-24T08:30:30.354Z,255.43
2019-01-24T08:32:59.459Z,266.27
2019-01-24T08:35:28.542Z,282.43
2019-01-24T08:37:57.635Z,287.40
2019-01-24T08:40:27.567Z,282.67
2019-01-24T08:42:56.651Z,279.10
2019-01-24T08:45:25.745Z,252.37
2019-01-24T08:47:54.855Z,232.73
2019-01-24T08:50:23.952Z,171.63
2019-01-24T08:52:53.037Z,136.67
2019-01-24T08:55:34.494Z,172.43
2019-01-24T08:58:03.574Z,220.60
2019-01-24T09:00:32.663Z,207.80
2019-01-24T09:03:02.059Z,210.17
2019-01-24T09:05:31.139Z,222.90
2019-01-24T09:08:00.223Z,279.37
2019-01-24T09:10:31.304Z,350.50
2019-01-24T09:13:00.402Z,336.70
2019-01-24T09:15:29.489Z,263.93
2019-01-24T09:17:58.601Z,197.30
2019-01-24T09:20:27.693Z,213.57
2019-01-24T09:22:56.803Z,220.67
2019-01-24T09:25:25.970Z,210.83
2019-01-24T09:27:55.055Z,288.37
2019-01-24T09:30:24.183Z,379.93
2019-01-24T09:32:53.292Z,307.50
2019-01-24T09:35:22.416Z,154.93
2019-01-24T09:37:51.503Z,147.20
2019-01-24T09:40:20.615Z,159.43
2019-01-24T09:42:50.579Z,52.33
2019-01-24T09:45:19.673Z,74.17
2019-01-24T09:47:48.787Z,79.97
2019-01-24T09:50:19.421Z,71.23
2019-01-24T09:52:48.497Z,71.87
2019-01-24T09:55:39.043Z,41.30
2019-01-24T09:58:08.127Z,49.60
2019-01-24T10:00:37.203Z,56.43
2019-01-24T10:03:06.340Z,27.03
2019-01-24T10:05:35.417Z,20.03
2019-01-24T10:08:04.482Z,14.77
2019-01-24T10:10:33.607Z,23.87
2019-01-24T10:13:02.698Z,18.30
2019-01-24T10:15:31.789Z,21.27
2019-01-24T10:18:00.895Z,23.63
2019-01-24T10:20:29.973Z,19.97
2019-01-24T10:22:59.037Z,17.47
2019-01-24T10:25:36.490Z,22.73
2019-01-24T10:28:05.551Z,30.17
2019-01-24T10:30:34.636Z,29.13
2019-01-24T10:33:03.723Z,28.13
2019-01-24T10:35:32.799Z,27.33
2019-01-24T10:38:01.864Z,24.23
2019-01-24T10:40:30.966Z,22.40
2019-01-24T10:43:00.041Z,23.87
2019-01-24T10:45:47.594Z,24.03
2019-01-24T10:48:16.663Z,22.17
2019-01-24T10:50:45.723Z,17.63
2019-01-24T10:53:14.854Z,21.37
2019-01-24T10:55:48.747Z,21.47
2019-01-24T10:58:17.851Z,20.30
2019-01-24T11:00:46.970Z,20.93
2019-01-24T11:03:15.996Z,15.07
2019-01-24T11:05:45.102Z,15.03
2019-01-24T11:08:14.172Z,23.83
2019-01-24T11:10:43.239Z,16.20
2019-01-24T11:13:12.340Z,16.57
2019-01-24T11:15:56.456Z,25.60
2019-01-24T11:18:25.550Z,11.80
2019-01-24T11:20:54.626Z,16.23
2019-01-24T11:23:23.685Z,17.13
2019-01-24T11:25:52.816Z,11.70
2019-01-24T11:28:21.893Z,14.20
2019-01-24T11:30:50.955Z,22.17
2019-01-24T11:33:20.051Z,22.37
2019-01-24T11:35:49.129Z,21.43
2019-01-24T11:38:18.196Z,23.17
2019-01-24T11:40:47.290Z,13.83
2019-01-24T11:43:16.368Z,16.23
2019-01-24T11:45:45.439Z,17.47
2019-01-24T11:48:14.572Z,8.33
2019-01-24T11:50:43.641Z,16.00
2019-01-24T11:53:12.717Z,17.07
2019-01-24T11:55:42.135Z,13.00
2019-01-24T11:58:11.133Z,20.33
2019-01-24T12:00:40.199Z,16.47
2019-01-24T12:03:09.298Z,22.53
2019-01-24T12:08:43.957Z,27.17
2019-01-24T12:11:13.030Z,20.93
2019-01-24T12:13:42.118Z,18.37
2019-01-24T12:16:11.221Z,23.50
2019-01-24T12:18:40.295Z,19.70
2019-01-24T12:21:09.373Z,17.93
2019-01-24T12:23:38.465Z,20.33
2019-01-24T12:26:07.533Z,18.33
2019-01-24T12:28:36.600Z,8.23
2019-01-24T12:31:05.705Z,9.97
2019-01-24T12:33:34.774Z,18.80
2019-01-24T12:36:04.120Z,20.87
2019-01-24T12:38:33.168Z,14.63
2019-01-24T12:41:02.240Z,21.90
2019-01-24T12:43:32.198Z,21.47
2019-01-24T12:46:01.287Z,24.87
2019-01-24T12:48:30.348Z,20.30
2019-01-24T12:50:59.407Z,23.70
2019-01-24T12:53:28.529Z,35.70
2019-01-24T12:55:57.599Z,30.47
2019-01-24T12:58:26.673Z,30.00
2019-01-24T13:00:55.863Z,33.40
2019-01-24T13:03:24.931Z,35.00
2019-01-24T13:05:53.995Z,36.67
2019-01-24T13:08:23.087Z,43.10
2019-01-24T13:10:52.164Z,48.63
2019-01-24T13:13:21.232Z,34.90
2019-01-24T13:15:50.647Z,47.70
2019-01-24T13:18:19.722Z,48.90
2019-01-24T13:20:48.844Z,99.10
2019-01-24T13:23:17.961Z,105.53
2019-01-24T13:25:47.046Z,39.93
2019-01-24T13:28:16.298Z,39.97
2019-01-24T13:30:45.390Z,43.20
2019-01-24T13:33:15.183Z,102.27
2019-01-24T13:35:43.555Z,85.20
2019-01-24T13:38:12.686Z,45.53
2019-01-24T13:40:41.758Z,29.17
2019-01-24T13:43:10.827Z,41.87
2019-01-24T13:45:39.925Z,34.13
2019-01-24T13:48:09.000Z,50.27
2019-01-24T13:50:38.074Z,26.27
2019-01-24T13:53:07.165Z,49.27
2019-01-24T13:55:36.237Z,45.83
2019-01-24T13:58:05.323Z,26.87
2019-01-24T14:00:34.428Z,28.53
2019-01-24T14:03:17.055Z,41.73
2019-01-24T14:05:46.161Z,49.80
2019-01-24T14:08:15.231Z,40.63
2019-01-24T14:10:44.303Z,50.00
2019-01-24T14:13:13.401Z,41.50
2019-01-24T14:15:42.475Z,38.53
2019-01-24T14:18:11.534Z,31.57
2019-01-24T14:20:40.670Z,28.13
2019-01-24T14:23:09.743Z,31.63
2019-01-24T14:25:38.833Z,33.03
2019-01-24T14:28:07.943Z,40.33
2019-01-24T14:30:37.017Z,40.67
2019-01-24T14:33:06.091Z,39.13
2019-01-24T14:35:35.211Z,33.80
2019-01-24T14:38:04.292Z,30.53
2019-01-24T14:40:33.379Z,29.50
2019-01-24T14:43:02.504Z,28.97
2019-01-24T14:45:32.344Z,25.87
2019-01-24T14:48:01.412Z,28.77
2019-01-24T14:50:30.510Z,21.83
2019-01-24T14:52:59.596Z,27.03
2019-01-24T14:58:37.983Z,26.07
2019-01-24T15:01:07.107Z,24.77
2019-01-24T15:03:36.177Z,26.83
2019-01-24T15:06:26.341Z,25.07
2019-01-24T15:08:55.424Z,26.17
2019-01-24T15:11:24.494Z,25.37
2019-01-24T15:13:53.608Z,31.77
2019-01-24T15:16:22.680Z,29.93
2019-01-24T15:18:51.755Z,32.57
2019-01-24T15:21:20.974Z,27.30
2019-01-24T15:23:50.035Z,29.83
2019-01-24T15:26:19.119Z,30.47
2019-01-24T15:28:48.226Z,28.87
2019-01-24T15:31:17.306Z,29.43
2019-01-24T15:33:46.372Z,29.47
2019-01-24T15:36:15.500Z,27.10
2019-01-24T15:38:44.571Z,29.13
2019-01-24T15:41:13.638Z,18.40
2019-01-24T15:43:42.848Z,32.90
2019-01-24T15:46:11.926Z,72.07
2019-01-24T15:48:42.793Z,27.77
2019-01-24T15:51:10.096Z,32.50
2019-01-24T15:53:39.168Z,30.33
2019-01-24T15:56:08.233Z,26.50
2019-01-24T15:58:37.319Z,34.20
2019-01-24T16:01:06.401Z,38.37
2019-01-24T16:03:35.479Z,35.10
2019-01-24T16:06:25.312Z,41.93
2019-01-24T16:08:54.397Z,45.90
2019-01-24T16:11:23.469Z,55.83
2019-01-24T16:13:52.582Z,38.50
2019-01-24T16:16:21.648Z,37.83
2019-01-24T16:18:50.719Z,41.93
2019-01-24T16:21:19.849Z,39.50
2019-01-24T16:23:48.918Z,36.90
2019-01-24T16:26:17.987Z,35.03
2019-01-24T16:28:47.091Z,39.97
2019-01-24T16:31:16.178Z,38.30
2019-01-24T16:33:45.254Z,70.40
2019-01-24T16:36:16.360Z,55.20
2019-01-24T16:38:45.446Z,66.03
2019-01-24T16:41:14.525Z,55.73
2019-01-24T16:43:43.633Z,63.80
2019-01-24T16:46:13.539Z,55.73
2019-01-24T16:48:42.611Z,58.87
2019-01-24T16:51:11.729Z,56.03
2019-01-24T16:53:40.869Z,66.27
2019-01-24T16:56:09.937Z,69.47
2019-01-24T16:58:39.041Z,74.80
2019-01-24T17:01:08.124Z,50.33
2019-01-24T17:03:37.195Z,57.07
2019-01-24T17:06:06.377Z,51.60
2019-01-24T17:08:35.452Z,54.57
2019-01-24T17:11:04.550Z,62.37
2019-01-24T17:13:33.706Z,68.03
2019-01-24T17:16:02.781Z,68.77
2019-01-24T17:18:31.862Z,70.90
2019-01-24T17:21:00.960Z,81.90
2019-01-24T17:23:30.049Z,116.17
2019-01-24T17:25:59.138Z,140.97
2019-01-24T17:28:28.241Z,104.70
2019-01-24T17:30:57.332Z,129.17
2019-01-24T17:33:26.412Z,172.87
2019-01-24T17:35:55.866Z,107.67
2019-01-24T17:38:24.952Z,130.17
2019-01-24T17:40:54.033Z,112.03
2019-01-24T17:43:23.153Z,125.23
2019-01-24T17:45:52.237Z,161.40
2019-01-24T17:48:21.331Z,116.10
2019-01-24T17:50:50.435Z,122.43
2019-01-24T17:53:19.527Z,142.43
2019-01-24T17:55:48.617Z,162.57
2019-01-24T17:58:18.659Z,120.60
2019-01-24T18:00:47.735Z,130.57
2019-01-24T18:03:16.816Z,134.40
2019-01-24T18:05:45.936Z,128.77
2019-01-24T18:08:15.016Z,174.87
2019-01-24T18:10:44.108Z,198.60
2019-01-24T18:13:13.217Z,215.87
2019-01-24T18:15:42.304Z,242.87
2019-01-24T18:18:11.398Z,229.67
2019-01-24T18:20:40.534Z,214.50
2019-01-24T18:23:09.628Z,182.27
2019-01-24T18:25:38.723Z,198.63
2019-01-24T18:28:07.838Z,185.93
2019-01-24T18:30:36.926Z,186.03
2019-01-24T18:33:06.004Z,170.83
2019-01-24T18:35:35.122Z,181.07
2019-01-24T18:38:04.266Z,206.63
2019-01-24T18:40:33.417Z,225.53
2019-01-24T18:43:02.542Z,224.40
2019-01-24T18:45:31.631Z,235.47
2019-01-24T18:48:00.718Z,264.73
2019-01-24T18:50:30.706Z,254.30
2019-01-24T18:52:59.784Z,234.97
2019-01-24T18:55:28.868Z,185.13
2019-01-24T18:57:57.978Z,215.03
2019-01-24T19:00:27.079Z,200.97
2019-01-24T19:02:56.160Z,194.93
2019-01-24T19:05:25.314Z,182.13
2019-01-24T19:07:54.391Z,220.73
2019-01-24T19:10:23.471Z,333.37
2019-01-24T19:12:52.580Z,316.20
2019-01-24T19:15:21.658Z,308.90
2019-01-24T19:17:50.738Z,300.13
2019-01-24T19:20:20.322Z,306.87
2019-01-24T19:22:48.950Z,306.10
2019-01-24T19:25:30.437Z,255.90
2019-01-24T19:27:59.527Z,209.60
2019-01-24T19:30:29.431Z,209.50
2019-01-24T19:32:58.609Z,223.20
2019-01-24T19:35:28.827Z,235.50
2019-01-24T19:37:57.677Z,247.93
2019-01-24T19:40:26.799Z,258.53
2019-01-24T19:42:55.894Z,257.50
2019-01-24T19:45:24.990Z,248.13
2019-01-24T19:47:54.118Z,240.50
2019-01-24T19:50:25.138Z,236.33
2019-01-24T19:52:54.228Z,240.93
2019-01-24T19:55:23.400Z,234.47
2019-01-24T19:57:52.494Z,234.60
2019-01-24T20:00:21.664Z,250.13
2019-01-24T20:02:50.781Z,268.90
2019-01-24T20:05:19.907Z,274.73
2019-01-24T20:07:48.994Z,265.83
2019-01-24T20:10:19.219Z,250.87
2019-01-24T20:12:48.310Z,216.93
2019-01-24T20:15:18.204Z,196.27
2019-01-24T20:17:47.306Z,198.83
2019-01-24T20:20:16.403Z,217.83
2019-01-24T20:22:45.558Z,236.40
2019-01-24T20:25:19.794Z,225.77
2019-01-24T20:27:48.893Z,210.40
2019-01-24T20:30:17.988Z,238.17
2019-01-24T20:32:47.099Z,256.83
2019-01-24T20:35:16.175Z,193.53
2019-01-24T20:37:45.267Z,185.87
2019-01-24T20:40:14.385Z,223.50
2019-01-24T20:42:43.480Z,199.63
2019-01-24T20:45:12.578Z,195.70
2019-01-24T20:47:41.692Z,181.73
2019-01-24T20:50:12.323Z,206.07
2019-01-24T20:52:41.408Z,227.80
2019-01-24T20:55:10.519Z,219.23
2019-01-24T20:57:39.600Z,201.87
2019-01-24T21:00:11.642Z,178.83
2019-01-24T21:02:40.740Z,173.57
2019-01-24T21:05:09.855Z,181.70
2019-01-24T21:07:39.093Z,199.83
2019-01-24T21:10:08.929Z,195.87
2019-01-24T21:12:50.578Z,238.00
2019-01-24T21:15:29.263Z,199.10
2019-01-24T21:17:59.238Z,190.50
2019-01-24T21:20:28.352Z,198.90
2019-01-24T21:22:57.479Z,200.63
2019-01-24T21:25:26.629Z,195.93
2019-01-24T21:27:55.707Z,180.30
2019-01-24T21:30:28.544Z,146.30
2019-01-24T21:32:57.630Z,153.20
2019-01-24T21:35:43.719Z,153.53
2019-01-24T21:38:12.816Z,157.07
2019-01-24T21:40:41.903Z,175.33
2019-01-24T21:43:11.019Z,179.67
2019-01-24T21:45:40.111Z,163.73
2019-01-24T21:48:09.186Z,159.80
2019-01-24T21:50:38.309Z,212.60
2019-01-24T21:53:08.224Z,169.30
2019-01-24T21:55:44.952Z,195.33
2019-01-24T21:58:14.027Z,144.90
2019-01-24T22:00:43.442Z,133.10
2019-01-24T22:03:12.506Z,123.40
2019-01-24T22:05:41.636Z,97.07
2019-01-24T22:08:10.691Z,76.20
2019-01-24T22:10:39.797Z,92.43
2019-01-24T22:13:08.883Z,89.37
2019-01-24T22:15:37.974Z,102.40
2019-01-24T22:18:07.080Z,101.90
2019-01-24T22:20:36.168Z,88.33
2019-01-24T22:23:05.236Z,76.93
2019-01-24T22:25:34.450Z,68.50
2019-01-24T22:28:03.531Z,50.47
2019-01-24T22:30:32.611Z,62.47
2019-01-24T22:33:01.726Z,62.33
2019-01-24T22:35:30.817Z,73.67
2019-01-24T22:37:59.893Z,70.80
2019-01-24T22:40:29.003Z,70.37
2019-01-24T22:42:58.089Z,68.83
2019-01-24T22:45:27.169Z,70.40
2019-01-24T22:47:56.279Z,74.37
2019-01-24T22:50:25.352Z,72.07
2019-01-24T22:52:54.432Z,89.47
2019-01-24T22:55:42.318Z,88.43
2019-01-24T22:58:11.387Z,62.60
2019-01-24T23:00:53.071Z,56.90
2019-01-24T23:03:22.148Z,69.17
2019-01-24T23:05:52.383Z,74.77
2019-01-24T23:08:20.518Z,82.13
2019-01-24T23:10:49.618Z,88.70
2019-01-24T23:13:18.695Z,67.97
2019-01-24T23:15:47.820Z,53.50
2019-01-24T23:18:16.905Z,42.27
2019-01-24T23:20:45.976Z,39.57
2019-01-24T23:23:15.066Z,42.03
2019-01-24T23:25:44.127Z,42.10
2019-01-24T23:28:13.202Z,47.47
2019-01-24T23:30:42.316Z,51.20
2019-01-24T23:33:11.396Z,47.27
2019-01-24T23:35:40.474Z,47.43
2019-01-24T23:38:09.564Z,43.23
2019-01-24T23:40:38.640Z,45.13
2019-01-24T23:43:07.715Z,46.90
2019-01-24T23:45:36.812Z,48.17
2019-01-24T23:48:05.898Z,43.83
2019-01-24T23:50:34.975Z,43.83
2019-01-24T23:53:04.142Z,45.47
2019-01-24T23:55:33.313Z,44.43
2019-01-24T23:58:02.383Z,46.80
